Time;durP1;ratioP1;P1;durP2;ratioP2;P2;SDS_P1;SDS_P2;PMS_P1;PMS_P2;Temp;Humidity;BMP_temperature;BMP_pressure;BME280_temperature;BME280_humidity;BME280_pressure;Samples;Min_cycle;Max_cycle;Signal;HPM_P1;HPM_P2
2024/03/01 00:01:44;;;;;;;17.10;9.68;;;;;;;-144.57;100.00;62443.72;5034585;28;20095;-62
2024/03/01 00:04:10;;;;;;;16.65;9.77;;;;;;;-144.57;100.00;62443.72;5033030;28;20638;-62
2024/03/01 00:06:35;;;;;;;20.35;9.88;;;;;;;-144.57;100.00;62443.72;5034577;28;20073;-64
2024/03/01 00:09:01;;;;;;;15.75;9.60;;;;;;;-144.57;100.00;62443.72;5034273;28;20037;-63
2024/03/01 00:11:27;;;;;;;13.95;8.57;;;;;;;-144.57;100.00;62443.72;5033956;28;20066;-62
2024/03/01 00:13:52;;;;;;;17.40;9.63;;;;;;;-144.57;100.00;62443.72;5032857;28;20041;-61
2024/03/01 00:16:19;;;;;;;16.48;10.05;;;;;;;-144.57;100.00;62443.72;5033985;28;20423;-64
2024/03/01 00:18:45;;;;;;;16.73;9.70;;;;;;;-144.57;100.00;62443.72;5048015;28;20045;-62
2024/03/01 00:21:15;;;;;;;19.00;9.63;;;;;;;-144.57;100.00;62443.72;5032426;28;20053;-63
2024/03/01 00:23:42;;;;;;;20.13;10.30;;;;;;;-144.57;100.00;62443.72;5032571;28;20047;-62
2024/03/01 00:26:07;;;;;;;19.40;9.05;;;;;;;-144.57;100.00;62443.72;5032757;28;20049;-62
2024/03/01 00:28:34;;;;;;;16.50;9.65;;;;;;;-144.57;100.00;62443.72;5033537;28;20526;-61
2024/03/01 00:30:59;;;;;;;18.17;10.55;;;;;;;-144.57;100.00;62443.72;5031506;28;20052;-63
2024/03/01 00:33:25;;;;;;;19.13;10.63;;;;;;;-144.57;100.00;62443.72;5031822;28;20041;-62
2024/03/01 00:35:51;;;;;;;17.80;9.80;;;;;;;-144.57;100.00;62443.72;5030290;28;20052;-65
2024/03/01 00:38:16;;;;;;;16.38;9.63;;;;;;;-144.57;100.00;62443.72;5033252;28;20130;-63
2024/03/01 00:40:42;;;;;;;16.40;9.63;;;;;;;-144.57;100.00;62443.72;5033880;28;20051;-62
2024/03/01 00:43:07;;;;;;;12.80;9.57;;;;;;;-144.57;100.00;62443.72;5033646;28;20141;-62
2024/03/01 00:45:33;;;;;;;18.80;10.18;;;;;;;-144.57;100.00;62443.72;5048864;28;20120;-61
2024/03/01 00:47:59;;;;;;;17.13;9.40;;;;;;;-144.57;100.00;62443.72;5033687;28;20045;-62
2024/03/01 00:50:24;;;;;;;18.02;9.93;;;;;;;-144.57;100.00;62443.72;5033068;28;20053;-63
2024/03/01 00:52:50;;;;;;;16.98;9.77;;;;;;;-144.57;100.00;62443.72;5032108;28;20045;-62
2024/03/01 00:55:17;;;;;;;18.83;9.63;;;;;;;-144.57;100.00;62443.72;5033816;28;20416;-62
2024/03/01 00:57:43;;;;;;;16.92;9.57;;;;;;;-144.57;100.00;62443.72;5048448;28;20495;-61
2024/03/01 01:00:10;;;;;;;13.95;9.02;;;;;;;-144.57;100.00;62443.72;5033199;28;20133;-62
2024/03/01 01:02:35;;;;;;;13.93;9.07;;;;;;;-144.57;100.00;62443.72;5033359;28;20080;-63
2024/03/01 01:05:01;;;;;;;16.63;9.65;;;;;;;-144.57;100.00;62443.72;5033120;28;20072;-64
2024/03/01 01:07:27;;;;;;;15.02;9.48;;;;;;;-144.57;100.00;62443.72;5033564;28;20049;-61
2024/03/01 01:09:52;;;;;;;16.95;9.82;;;;;;;-144.57;100.00;62443.72;5033024;28;20579;-62
2024/03/01 01:12:19;;;;;;;17.23;9.95;;;;;;;-144.57;100.00;62443.72;5033003;28;20033;-62
2024/03/01 01:14:44;;;;;;;17.65;10.25;;;;;;;-144.57;100.00;62443.72;5048311;28;20049;-63
2024/03/01 01:17:12;;;;;;;15.85;9.77;;;;;;;-144.57;100.00;62443.72;5032888;28;20049;-62
2024/03/01 01:19:38;;;;;;;23.00;10.52;;;;;;;-144.57;100.00;62443.72;5032883;28;20069;-63
2024/03/01 01:22:04;;;;;;;20.42;10.48;;;;;;;-144.57;100.00;62443.72;5032565;28;20076;-62
2024/03/01 01:24:30;;;;;;;18.33;10.20;;;;;;;-144.57;100.00;62443.72;5033251;28;20414;-64
2024/03/01 01:26:56;;;;;;;18.98;10.57;;;;;;;-144.57;100.00;62443.72;5032887;28;20423;-61
2024/03/01 01:29:22;;;;;;;15.05;9.75;;;;;;;-144.57;100.00;62443.72;5032709;28;20164;-63
2024/03/01 01:31:47;;;;;;;21.33;9.85;;;;;;;-144.57;100.00;62443.72;5032961;28;20049;-63
2024/03/01 01:34:13;;;;;;;15.63;9.27;;;;;;;-144.57;100.00;62443.72;5033019;28;20071;-62
2024/03/01 01:36:40;;;;;;;17.05;10.13;;;;;;;-144.57;100.00;62443.72;5031296;28;20046;-63
2024/03/01 01:39:05;;;;;;;18.13;9.85;;;;;;;-144.57;100.00;62443.72;5031411;28;20043;-63
2024/03/01 01:41:32;;;;;;;19.38;10.27;;;;;;;-144.57;100.00;62443.72;5032673;28;20132;-64
2024/03/01 01:43:58;;;;;;;23.95;10.82;;;;;;;-144.57;100.00;62443.72;5031247;28;20481;-62
2024/03/01 01:46:23;;;;;;;18.55;10.57;;;;;;;-144.57;100.00;62443.72;5047749;28;20136;-60
2024/03/01 01:48:49;;;;;;;12.52;9.43;;;;;;;-144.57;100.00;62443.72;5032246;28;20041;-63
2024/03/01 01:51:16;;;;;;;18.88;10.70;;;;;;;-144.57;100.00;62443.72;5014498;28;20041;-62
2024/03/01 01:53:43;;;;;;;18.70;11.35;;;;;;;-144.57;100.00;62443.72;5047510;28;20048;-62
2024/03/01 01:56:10;;;;;;;17.00;10.23;;;;;;;-144.57;100.00;62443.72;5047394;28;20088;-63
2024/03/01 01:58:36;;;;;;;17.38;10.30;;;;;;;-144.57;100.00;62443.72;5032390;28;20069;-61
2024/03/01 02:01:07;;;;;;;19.05;10.63;;;;;;;-144.57;100.00;62443.72;5030778;28;20061;-62
2024/03/01 02:03:37;;;;;;;21.48;11.13;;;;;;;-144.57;100.00;62443.72;5029956;28;20083;-62
2024/03/01 02:06:04;;;;;;;22.83;11.10;;;;;;;-144.57;100.00;62443.72;5031088;28;20046;-61
2024/03/01 02:08:33;;;;;;;17.77;9.85;;;;;;;-144.57;100.00;62443.72;5032570;28;20042;-61
2024/03/01 02:10:59;;;;;;;17.50;10.25;;;;;;;-144.57;100.00;62443.72;5030793;28;20167;-61
2024/03/01 02:13:25;;;;;;;19.33;10.15;;;;;;;-144.57;100.00;62443.72;5032506;28;20050;-62
2024/03/01 02:15:54;;;;;;;18.85;10.40;;;;;;;-144.57;100.00;62443.72;5031194;28;20514;-65
2024/03/01 02:18:19;;;;;;;20.77;11.70;;;;;;;-144.57;100.00;62443.72;5014547;28;20049;-61
2024/03/01 02:21:22;;;;;;;23.08;11.40;;;;;;;-144.57;100.00;62443.72;5032059;28;20041;-63
2024/03/01 02:23:47;;;;;;;21.48;11.90;;;;;;;-144.57;100.00;62443.72;4977215;28;20507;-62
2024/03/01 02:26:13;;;;;;;19.70;10.93;;;;;;;-144.57;100.00;62443.72;5022578;28;20049;-61
2024/03/01 02:28:44;;;;;;;19.05;11.07;;;;;;;-144.57;100.00;62443.72;5047396;28;20130;-63
2024/03/01 02:31:10;;;;;;;;;;;;;;;-144.57;100.00;62443.72;5047675;28;20042;-61
2024/03/01 02:33:35;;;;;;;18.65;10.98;;;;;;;-144.57;100.00;62443.72;5032307;28;20175;-62
2024/03/01 02:36:01;;;;;;;18.65;10.65;;;;;;;-144.57;100.00;62443.72;5031784;28;20053;-64
2024/03/01 02:38:28;;;;;;;18.05;10.70;;;;;;;-144.57;100.00;62443.72;5032001;28;20433;-62
2024/03/01 02:40:54;;;;;;;21.23;11.75;;;;;;;-144.57;100.00;62443.72;5031729;28;20037;-62
2024/03/01 02:43:20;;;;;;;20.48;11.60;;;;;;;-144.57;100.00;62443.72;5030346;28;20051;-63
2024/03/01 02:45:46;;;;;;;22.55;11.70;;;;;;;-144.57;100.00;62443.72;5047280;28;20118;-64
2024/03/01 02:48:11;;;;;;;22.25;11.23;;;;;;;-144.57;100.00;62443.72;5047132;28;20128;-62
2024/03/01 02:50:37;;;;;;;23.60;11.68;;;;;;;-144.57;100.00;62443.72;5031536;28;20052;-62
2024/03/01 02:53:03;;;;;;;19.30;11.45;;;;;;;-144.57;100.00;62443.72;5030155;28;20038;-63
2024/03/01 02:55:29;;;;;;;19.63;11.65;;;;;;;-144.57;100.00;62443.72;5030205;28;20550;-62
2024/03/01 02:57:55;;;;;;;19.13;11.77;;;;;;;-144.57;100.00;62443.72;5031662;28;20041;-61
2024/03/01 03:00:21;;;;;;;21.33;11.90;;;;;;;-144.57;100.00;62443.72;5031597;28;20041;-62
2024/03/01 03:02:47;;;;;;;21.20;11.98;;;;;;;-144.57;100.00;62443.72;5029988;28;20095;-62
2024/03/01 03:05:13;;;;;;;22.02;11.25;;;;;;;-144.57;100.00;62443.72;5031313;28;20068;-64
2024/03/01 03:07:39;;;;;;;20.55;11.32;;;;;;;-144.57;100.00;62443.72;5031514;28;20491;-61
2024/03/01 03:10:06;;;;;;;22.33;12.25;;;;;;;-144.57;100.00;62443.72;5029907;28;20057;-62
2024/03/01 03:12:32;;;;;;;21.00;12.68;;;;;;;-144.57;100.00;62443.72;5030056;28;20037;-62
2024/03/01 03:15:00;;;;;;;19.33;11.95;;;;;;;-144.57;100.00;62443.72;5030238;28;20041;-63
2024/03/01 03:17:27;;;;;;;21.08;11.43;;;;;;;-144.57;100.00;62443.72;5031125;28;20499;-63
2024/03/01 03:19:53;;;;;;;22.15;12.75;;;;;;;-144.57;100.00;62443.72;5031264;28;20049;-62
2024/03/01 03:22:19;;;;;;;25.52;12.85;;;;;;;-144.57;100.00;62443.72;5031310;28;20567;-61
2024/03/01 03:24:45;;;;;;;22.00;12.43;;;;;;;-144.57;100.00;62443.72;5031373;28;20144;-62
2024/03/01 03:27:12;;;;;;;22.65;13.43;;;;;;;-144.57;100.00;62443.72;5031064;28;20136;-62
2024/03/01 03:29:38;;;;;;;23.08;13.02;;;;;;;-144.57;100.00;62443.72;5029851;28;20052;-62
2024/03/01 03:32:03;;;;;;;26.05;13.90;;;;;;;-144.57;100.00;62443.72;5029670;28;20037;-60
2024/03/01 03:34:29;;;;;;;26.02;13.80;;;;;;;-144.57;100.00;62443.72;5013190;28;20626;-62
2024/03/01 03:36:56;;;;;;;23.38;13.02;;;;;;;-144.57;100.00;62443.72;5031168;28;20128;-63
2024/03/01 03:39:21;;;;;;;20.65;12.93;;;;;;;-144.57;100.00;62443.72;5030933;28;20136;-62
2024/03/01 03:41:47;;;;;;;19.38;12.18;;;;;;;-144.57;100.00;62443.72;5031242;28;20121;-64
2024/03/01 03:44:13;;;;;;;21.75;12.38;;;;;;;-144.57;100.00;62443.72;5030722;28;20041;-62
2024/03/01 03:46:38;;;;;;;24.90;12.43;;;;;;;-144.57;100.00;62443.72;5030956;28;20575;-62
2024/03/01 03:49:07;;;;;;;21.48;13.35;;;;;;;-144.57;100.00;62443.72;5031357;28;20049;-63
2024/03/01 03:51:33;;;;;;;22.10;13.10;;;;;;;-144.57;100.00;62443.72;5030978;28;20473;-63
2024/03/01 03:53:59;;;;;;;24.73;13.05;;;;;;;-144.57;100.00;62443.72;5029399;28;20140;-62
2024/03/01 03:56:25;;;;;;;25.15;13.48;;;;;;;-144.57;100.00;62443.72;5030875;28;20051;-64
2024/03/01 03:58:51;;;;;;;22.00;13.32;;;;;;;-144.57;100.00;62443.72;5031213;28;20137;-64
2024/03/01 04:01:22;;;;;;;24.17;13.18;;;;;;;-144.57;100.00;62443.72;5014428;28;20487;-62
2024/03/01 04:03:50;;;;;;;24.15;13.75;;;;;;;-144.57;100.00;62443.72;4996926;28;20049;-61
2024/03/01 04:06:16;;;;;;;23.55;13.27;;;;;;;-144.57;100.00;62443.72;5044919;28;20511;-62
2024/03/01 04:08:42;;;;;;;26.60;12.88;;;;;;;-144.57;100.00;62443.72;5029666;28;20047;-62
2024/03/01 04:11:08;;;;;;;20.00;12.90;;;;;;;-144.57;100.00;62443.72;5030915;28;20451;-62
2024/03/01 04:13:34;;;;;;;23.65;12.52;;;;;;;-144.57;100.00;62443.72;5031085;28;20072;-62
2024/03/01 04:16:00;;;;;;;24.45;13.82;;;;;;;-144.57;100.00;62443.72;5013080;28;20117;-63
2024/03/01 04:18:27;;;;;;;27.73;15.50;;;;;;;-144.57;100.00;62443.72;5029575;28;20515;-63
2024/03/01 04:20:57;;;;;;;27.88;15.90;;;;;;;-144.57;100.00;62443.72;5030683;28;20065;-60
2024/03/01 04:23:23;;;;;;;26.05;17.27;;;;;;;-144.57;100.00;62443.72;5030838;28;20080;-63
2024/03/01 04:25:51;;;;;;;24.77;16.13;;;;;;;-144.57;100.00;62443.72;5032017;28;20132;-62
2024/03/01 04:28:18;;;;;;;26.38;15.98;;;;;;;-144.57;100.00;62443.72;5031980;28;20061;-63
2024/03/01 04:30:45;;;;;;;28.10;15.93;;;;;;;-144.57;100.00;62443.72;5047724;28;20046;-60
2024/03/01 04:33:11;;;;;;;33.22;16.45;;;;;;;-144.57;100.00;62443.72;5033346;28;20057;-62
2024/03/01 04:35:37;;;;;;;28.10;15.73;;;;;;;-144.57;100.00;62443.72;5032677;28;20046;-62
2024/03/01 04:38:03;;;;;;;27.52;16.02;;;;;;;-144.57;100.00;62443.72;5034229;28;20052;-61
2024/03/01 04:40:29;;;;;;;28.83;16.15;;;;;;;-144.57;100.00;62443.72;5049213;28;20041;-62
2024/03/01 04:42:54;;;;;;;31.33;17.02;;;;;;;-144.57;100.00;62443.72;5034025;28;20064;-63
2024/03/01 04:45:20;;;;;;;31.08;16.23;;;;;;;-144.57;100.00;62443.72;5034161;28;20049;-64
2024/03/01 04:47:46;;;;;;;22.90;15.02;;;;;;;-144.57;100.00;62443.72;5033767;28;20445;-61
2024/03/01 04:50:11;;;;;;;29.08;15.93;;;;;;;-144.57;100.00;62443.72;5032348;28;20056;-64
2024/03/01 04:52:37;;;;;;;25.45;14.95;;;;;;;-144.57;100.00;62443.72;5032456;28;20091;-63
2024/03/01 04:55:05;;;;;;;26.42;16.10;;;;;;;-144.57;100.00;62443.72;5033657;28;20443;-64
2024/03/01 04:57:31;;;;;;;27.30;15.80;;;;;;;-144.57;100.00;62443.72;5033873;28;20041;-62
2024/03/01 04:59:57;;;;;;;25.63;15.77;;;;;;;-144.57;100.00;62443.72;5033407;28;20049;-63
2024/03/01 05:02:23;;;;;;;26.10;15.15;;;;;;;-144.57;100.00;62443.72;5033631;28;20045;-63
2024/03/01 05:04:49;;;;;;;25.13;15.20;;;;;;;-144.57;100.00;62443.72;5033161;28;20151;-65
2024/03/01 05:07:16;;;;;;;31.13;16.25;;;;;;;-144.57;100.00;62443.72;5031941;28;20045;-63
2024/03/01 05:09:42;;;;;;;30.13;16.65;;;;;;;-144.57;100.00;62443.72;5032921;28;20504;-63
2024/03/01 05:12:13;;;;;;;29.65;16.92;;;;;;;-144.57;100.00;62443.72;5033206;28;20041;-63
2024/03/01 05:14:40;;;;;;;38.38;17.13;;;;;;;-144.57;100.00;62443.72;5032447;28;20096;-62
2024/03/01 05:17:11;;;;;;;68.20;30.63;;;;;;;-144.57;100.00;62443.72;5032866;28;20041;-64
2024/03/01 05:19:39;;;;;;;42.45;21.85;;;;;;;-144.57;100.00;62443.72;5031409;28;20062;-63
2024/03/01 05:22:12;;;;;;;29.90;16.20;;;;;;;-144.57;100.00;62443.72;5030806;28;20562;-61
2024/03/01 05:24:39;;;;;;;23.38;14.50;;;;;;;-144.57;100.00;62443.72;5032577;28;20052;-61
2024/03/01 05:27:11;;;;;;;26.90;15.80;;;;;;;-144.57;100.00;62443.72;5031135;28;20054;-63
2024/03/01 05:29:36;;;;;;;41.20;17.17;;;;;;;-144.57;100.00;62443.72;5031223;28;20526;-62
2024/03/01 05:32:02;;;;;;;25.58;15.70;;;;;;;-144.57;100.00;62443.72;5031186;28;20053;-63
2024/03/01 05:34:28;;;;;;;27.80;15.93;;;;;;;-144.57;100.00;62443.72;5032959;28;20037;-62
2024/03/01 05:36:53;;;;;;;25.40;14.18;;;;;;;-144.57;100.00;62443.72;5031595;28;20037;-64
2024/03/01 05:39:19;;;;;;;27.52;14.65;;;;;;;-144.57;100.00;62443.72;5014732;28;20054;-63
2024/03/01 05:41:45;;;;;;;24.67;14.60;;;;;;;-144.57;100.00;62443.72;5032615;28;20400;-62
2024/03/01 05:44:12;;;;;;;26.77;14.80;;;;;;;-144.57;100.00;62443.72;5032867;28;20140;-62
2024/03/01 05:46:38;;;;;;;20.33;13.85;;;;;;;-144.57;100.00;62443.72;5032545;28;20072;-62
2024/03/01 05:49:04;;;;;;;23.60;13.52;;;;;;;-144.57;100.00;62443.72;5031540;28;20034;-62
2024/03/01 05:51:30;;;;;;;23.77;14.70;;;;;;;-144.57;100.00;62443.72;5032320;28;20094;-63
2024/03/01 05:53:57;;;;;;;28.77;14.85;;;;;;;-144.57;100.00;62443.72;5031923;28;20121;-62
2024/03/01 05:56:24;;;;;;;31.52;17.85;;;;;;;-144.57;100.00;62443.72;5031121;28;20084;-64
2024/03/01 05:58:50;;;;;;;29.67;16.05;;;;;;;-144.57;100.00;62443.72;4998182;28;20029;-61
2024/03/01 06:01:17;;;;;;;22.33;13.88;;;;;;;-144.57;100.00;62443.72;5032062;28;20068;-64
2024/03/01 06:03:43;;;;;;;23.33;14.30;;;;;;;-144.57;100.00;62443.72;5030934;28;20415;-63
2024/03/01 06:06:09;;;;;;;25.55;15.25;;;;;;;-144.57;100.00;62443.72;5030867;28;20049;-63
2024/03/01 06:08:35;;;;;;;27.85;15.82;;;;;;;-144.57;100.00;62443.72;5032029;28;20535;-61
2024/03/01 06:11:01;;;;;;;23.40;14.25;;;;;;;-144.57;100.00;62443.72;5031848;28;20573;-61
2024/03/01 06:13:27;;;;;;;23.63;14.57;;;;;;;-144.57;100.00;62443.72;5032169;28;20041;-62
2024/03/01 06:15:52;;;;;;;37.83;15.23;;;;;;;-144.57;100.00;62443.72;5032209;28;20515;-64
2024/03/01 06:18:18;;;;;;;25.77;14.85;;;;;;;-144.57;100.00;62443.72;5031880;28;20052;-62
2024/03/01 06:20:44;;;;;;;29.73;13.77;;;;;;;-144.57;100.00;62443.72;5031850;28;20045;-64
2024/03/01 06:23:09;;;;;;;30.42;15.02;;;;;;;-144.57;100.00;62443.72;5031984;28;20068;-63
2024/03/01 06:25:35;;;;;;;23.23;14.52;;;;;;;-144.57;100.00;62443.72;5030271;28;20419;-63
2024/03/01 06:28:00;;;;;;;26.50;14.55;;;;;;;-144.57;100.00;62443.72;5030437;28;20163;-63
2024/03/01 06:30:26;;;;;;;24.58;14.10;;;;;;;-144.57;100.00;62443.72;5031537;28;20048;-63
2024/03/01 06:32:53;;;;;;;31.30;15.10;;;;;;;-144.57;100.00;62443.72;5031786;28;20049;-61
2024/03/01 06:35:19;;;;;;;26.35;14.85;;;;;;;-144.57;100.00;62443.72;5031261;28;20128;-63
2024/03/01 06:37:45;;;;;;;26.23;16.05;;;;;;;-144.57;100.00;62443.72;5031702;28;20144;-62
2024/03/01 06:40:12;;;;;;;30.23;15.98;;;;;;;-144.57;100.00;62443.72;5031565;28;20081;-63
2024/03/01 06:42:38;;;;;;;29.48;15.55;;;;;;;-144.57;100.00;62443.72;5030376;28;20045;-61
2024/03/01 06:45:05;;;;;;;33.88;17.13;;;;;;;-144.57;100.00;62443.72;5031235;28;20049;-62
2024/03/01 06:47:33;;;;;;;30.42;16.38;;;;;;;-144.57;100.00;62443.72;5031400;28;20138;-62
2024/03/01 06:50:03;;;;;;;33.60;18.00;;;;;;;-144.57;100.00;62443.72;5031063;28;20393;-62
2024/03/01 06:52:28;;;;;;;28.23;16.30;;;;;;;-144.57;100.00;62443.72;5031585;28;20045;-63
2024/03/01 06:54:54;;;;;;;34.47;16.15;;;;;;;-144.57;100.00;62443.72;5029789;28;20042;-62
2024/03/01 06:57:20;;;;;;;31.13;17.83;;;;;;;-144.57;100.00;62443.72;5031385;28;20128;-60
2024/03/01 06:59:45;;;;;;;39.13;19.38;;;;;;;-144.57;100.00;62443.72;5031252;28;20041;-62
2024/03/01 07:02:11;;;;;;;34.30;16.58;;;;;;;-144.57;100.00;62443.72;5046559;28;20081;-62
2024/03/01 07:04:37;;;;;;;38.05;18.65;;;;;;;-144.57;100.00;62443.72;5029646;28;20053;-61
2024/03/01 07:07:03;;;;;;;33.70;18.95;;;;;;;-144.57;100.00;62443.72;5031283;28;20100;-60
2024/03/01 07:09:31;;;;;;;31.00;18.55;;;;;;;-144.57;100.00;62443.72;5020852;28;20108;-62
2024/03/01 07:11:57;;;;;;;33.90;18.63;;;;;;;-144.57;100.00;62443.72;5009895;28;20105;-61
2024/03/01 07:14:22;;;;;;;36.38;18.88;;;;;;;-144.57;100.00;62443.72;5020280;28;20042;-61
2024/03/01 07:16:48;;;;;;;33.22;18.40;;;;;;;-144.57;100.00;62443.72;5029731;28;20095;-63
2024/03/01 07:19:14;;;;;;;33.03;18.15;;;;;;;-144.57;100.00;62443.72;5031347;28;20045;-60
2024/03/01 07:21:40;;;;;;;33.22;18.27;;;;;;;-144.57;100.00;62443.72;5031282;28;20037;-62
2024/03/01 07:24:06;;;;;;;41.60;23.20;;;;;;;-144.57;100.00;62443.72;5031113;28;20041;-62
2024/03/01 07:26:32;;;;;;;40.35;23.05;;;;;;;-144.57;100.00;62443.72;5031400;28;20041;-62
2024/03/01 07:28:57;;;;;;;34.22;19.02;;;;;;;-144.57;100.00;62443.72;5031096;28;20049;-62
2024/03/01 07:31:23;;;;;;;33.85;18.70;;;;;;;-144.57;100.00;62443.72;5030106;28;20053;-60
2024/03/01 07:33:49;;;;;;;36.58;18.33;;;;;;;-144.57;100.00;62443.72;5031017;28;20037;-60
2024/03/01 07:36:14;;;;;;;36.17;18.25;;;;;;;-144.57;100.00;62443.72;5030867;28;20517;-62
2024/03/01 07:38:40;;;;;;;38.70;19.75;;;;;;;-144.57;100.00;62443.72;5030861;28;20513;-60
2024/03/01 07:41:06;;;;;;;40.35;18.42;;;;;;;-144.57;100.00;62443.72;5031018;28;20415;-64
2024/03/01 07:43:32;;;;;;;39.28;20.88;;;;;;;-144.57;100.00;62443.72;5030988;28;20045;-62
2024/03/01 07:45:57;;;;;;;33.08;20.13;;;;;;;-144.57;100.00;62443.72;5030826;28;20045;-60
2024/03/01 07:48:24;;;;;;;37.50;21.20;;;;;;;-144.57;100.00;62443.72;5030869;28;20394;-60
2024/03/01 07:50:50;;;;;;;34.97;21.80;;;;;;;-144.57;100.00;62443.72;5030604;28;20132;-61
2024/03/01 07:53:16;;;;;;;39.75;24.08;;;;;;;-144.57;100.00;62443.72;5030573;28;20172;-60
2024/03/01 07:55:41;;;;;;;51.47;26.00;;;;;;;-144.57;100.00;62443.72;5046200;28;20045;-62
2024/03/01 07:58:07;;;;;;;42.33;24.92;;;;;;;-144.57;100.00;62443.72;5031040;28;20041;-62
2024/03/01 08:00:33;;;;;;;43.28;23.83;;;;;;;-144.57;100.00;62443.72;5030244;28;20053;-62
2024/03/01 08:03:09;;;;;;;38.53;21.85;;;;;;;-144.57;100.00;62443.72;5032884;28;20073;-60
2024/03/01 08:05:38;;;;;;;38.60;19.42;;;;;;;-144.57;100.00;62443.72;5034315;28;20053;-62
2024/03/01 08:08:04;;;;;;;30.20;18.30;;;;;;;-144.57;100.00;62443.72;5034564;28;20510;-62
2024/03/01 08:10:33;;;;;;;33.80;19.70;;;;;;;-144.57;100.00;62443.72;5034165;28;20404;-62
2024/03/01 08:13:01;;;;;;;39.97;19.10;;;;;;;-144.57;100.00;62443.72;5016084;28;20049;-62
2024/03/01 08:15:30;;;;;;;31.73;19.00;;;;;;;-144.57;100.00;62443.72;5015842;28;20050;-61
2024/03/01 08:17:56;;;;;;;36.65;18.63;;;;;;;-144.57;100.00;62443.72;5014813;28;20108;-61
2024/03/01 08:21:05;;;;;;;36.45;18.48;;;;;;;-144.57;100.00;62443.72;5030433;28;20049;-61
2024/03/01 08:23:37;;;;;;;29.52;17.70;;;;;;;-144.57;100.00;62443.72;4992061;28;20073;-62
2024/03/01 08:26:04;;;;;;;33.25;18.95;;;;;;;-144.57;100.00;62443.72;4992425;28;20069;-61
2024/03/01 08:28:31;;;;;;;33.70;19.00;;;;;;;-144.57;100.00;62443.72;5003364;28;20472;-60
2024/03/01 08:30:57;;;;;;;38.67;20.83;;;;;;;-144.57;100.00;62443.72;5014077;28;20069;-61
2024/03/01 08:33:22;;;;;;;38.53;20.63;;;;;;;-144.57;100.00;62443.72;4997517;28;20132;-64
2024/03/01 08:35:49;;;;;;;35.85;18.55;;;;;;;-144.57;100.00;62443.72;5032665;28;20053;-62
2024/03/01 08:38:36;;;;;;;32.28;18.48;;;;;;;-144.57;100.00;62443.72;5034120;28;20091;-62
2024/03/01 08:41:03;;;;;;;35.38;18.23;;;;;;;-144.57;100.00;62443.72;5033775;28;20077;-61
2024/03/01 08:43:29;;;;;;;29.85;17.42;;;;;;;-144.57;100.00;62443.72;5033645;28;20487;-61
2024/03/01 08:46:00;;;;;;;31.98;18.88;;;;;;;-144.57;100.00;62443.72;5049536;28;20056;-63
2024/03/01 08:48:26;;;;;;;32.88;18.00;;;;;;;-144.57;100.00;62443.72;5049064;28;20041;-62
2024/03/01 08:50:52;;;;;;;35.10;18.10;;;;;;;-144.57;100.00;62443.72;5032725;28;20152;-60
2024/03/01 08:53:30;;;;;;;32.08;17.33;;;;;;;-144.57;100.00;62443.72;5033499;28;20530;-63
2024/03/01 08:55:56;;;;;;;31.25;17.30;;;;;;;-144.57;100.00;62443.72;5032383;28;20115;-62
2024/03/01 08:58:25;;;;;;;30.50;18.08;;;;;;;-144.57;100.00;62443.72;5031901;28;20504;-62
2024/03/01 09:00:53;;;;;;;28.80;16.00;;;;;;;-144.57;100.00;62443.72;5033219;28;20056;-62
2024/03/01 09:03:23;;;;;;;33.22;17.08;;;;;;;-144.57;100.00;62443.72;5031986;28;20073;-62
2024/03/01 09:05:50;;;;;;;;;;;;;;;-144.57;100.00;62443.72;5033884;28;20048;-63
2024/03/01 09:08:27;;;;;;;36.28;16.70;;;;;;;-144.57;100.00;62443.72;5048763;28;20292;-62
2024/03/01 09:10:54;;;;;;;28.30;16.48;;;;;;;-144.57;100.00;62443.72;5027228;28;20089;-61
2024/03/01 09:13:21;;;;;;;34.97;18.70;;;;;;;-144.57;100.00;62443.72;5031989;28;20045;-61
2024/03/01 09:15:47;;;;;;;31.23;16.23;;;;;;;-144.57;100.00;62443.72;5033469;28;20045;-61
2024/03/01 09:18:25;;;;;;;30.95;17.75;;;;;;;-144.57;100.00;62443.72;5033577;28;20042;-61
2024/03/01 09:20:51;;;;;;;37.53;17.90;;;;;;;-144.57;100.00;62443.72;5033025;28;20048;-61
2024/03/01 09:23:17;;;;;;;35.67;19.13;;;;;;;-144.57;100.00;62443.72;5032899;28;20465;-62
2024/03/01 09:25:51;;;;;;;33.97;19.63;;;;;;;-144.57;100.00;62443.72;5032136;28;20559;-62
2024/03/01 09:28:21;;;;;;;35.75;18.67;;;;;;;-144.57;100.00;62443.72;5031303;28;20041;-61
2024/03/01 09:30:51;;;;;;;35.60;18.80;;;;;;;-144.57;100.00;62443.72;5031652;28;20048;-62
2024/03/01 09:33:21;;;;;;;;;;;;;;;-144.57;100.00;62443.72;5015800;28;20052;-61
2024/03/01 09:35:51;;;;;;;35.80;20.03;;;;;;;-144.57;100.00;62443.72;5033021;28;20056;-61
2024/03/01 09:38:18;;;;;;;37.27;19.33;;;;;;;-144.57;100.00;62443.72;5031441;28;20298;-62
2024/03/01 09:40:50;;;;;;;39.05;19.83;;;;;;;-144.57;100.00;62443.72;5031302;28;20288;-62
2024/03/01 09:43:18;;;;;;;35.10;20.00;;;;;;;-144.57;100.00;62443.72;5032379;28;20049;-64
2024/03/01 09:45:53;;;;;;;39.08;19.73;;;;;;;-144.57;100.00;62443.72;5013033;28;20137;-62
2024/03/01 09:48:44;;;;;;;37.28;19.85;;;;;;;-144.57;100.00;62443.72;5012723;28;20120;-63
2024/03/01 09:51:16;;;;;;;38.20;19.95;;;;;;;-144.57;100.00;62443.72;5032455;28;20041;-62
2024/03/01 09:54:04;;;;;;;39.72;20.98;;;;;;;-144.57;100.00;62443.72;5032620;28;20134;-62
2024/03/01 09:57:07;;;;;;;38.15;20.05;;;;;;;-144.57;100.00;62443.72;5032417;28;20080;-63
2024/03/01 09:59:55;;;;;;;41.05;22.25;;;;;;;-144.57;100.00;62443.72;5030853;28;20053;-63
2024/03/01 10:03:10;;;;;;;38.03;20.50;;;;;;;-144.57;100.00;62443.72;5031495;28;20113;-61
2024/03/01 10:05:59;;;;;;;39.13;21.30;;;;;;;-144.57;100.00;62443.72;4993564;28;20080;-61
2024/03/01 10:08:35;;;;;;;37.35;21.05;;;;;;;-144.57;100.00;62443.72;4999021;28;20061;-60
2024/03/01 10:11:12;;;;;;;39.55;21.73;;;;;;;-144.57;100.00;62443.72;5029262;28;20519;-62
2024/03/01 10:13:52;;;;;;;39.85;22.33;;;;;;;-144.57;100.00;62443.72;5029910;28;20183;-61
2024/03/01 10:16:38;;;;;;;38.55;21.40;;;;;;;-144.57;100.00;62443.72;5031597;28;20041;-62
2024/03/01 10:19:10;;;;;;;34.38;21.10;;;;;;;-144.57;100.00;62443.72;5032220;28;20487;-61
2024/03/01 10:22:01;;;;;;;38.28;21.65;;;;;;;-144.57;100.00;62443.72;5031122;28;20057;-63
2024/03/01 10:24:47;;;;;;;41.08;21.20;;;;;;;-144.57;100.00;62443.72;5031177;28;20064;-61
2024/03/01 10:27:34;;;;;;;41.40;22.02;;;;;;;-144.57;100.00;62443.72;5010367;28;20049;-62
2024/03/01 10:30:10;;;;;;;38.63;22.75;;;;;;;-144.57;100.00;62443.72;5031487;28;20091;-61
2024/03/01 10:32:45;;;;;;;38.17;21.35;;;;;;;-144.57;100.00;62443.72;5032048;28;20060;-62
2024/03/01 10:35:20;;;;;;;38.05;21.48;;;;;;;-144.57;100.00;62443.72;5031713;28;20144;-62
2024/03/01 10:38:01;;;;;;;42.75;21.70;;;;;;;-144.57;100.00;62443.72;5047262;28;20041;-62
2024/03/01 10:40:26;;;;;;;;;;;;;;;-144.57;100.00;62443.72;5031008;28;20046;-62
2024/03/01 10:43:13;;;;;;;42.42;21.92;;;;;;;-144.57;100.00;62443.72;5031937;28;19928;-62
2024/03/01 10:46:03;;;;;;;33.88;20.95;;;;;;;-144.57;100.00;62443.72;5030488;28;20053;-61
2024/03/01 10:48:39;;;;;;;39.63;21.85;;;;;;;-144.57;100.00;62443.72;5031876;28;20431;-63
2024/03/01 10:51:16;;;;;;;41.85;21.77;;;;;;;-144.57;100.00;62443.72;5013749;28;20041;-64
2024/03/01 10:53:55;;;;;;;42.30;22.80;;;;;;;-144.57;100.00;62443.72;5031694;28;20045;-62
2024/03/01 10:56:21;;;;;;;37.30;20.65;;;;;;;-144.57;100.00;62443.72;5019157;28;20057;-63
2024/03/01 10:59:09;;;;;;;36.47;21.88;;;;;;;-144.57;100.00;62443.72;5010488;28;20060;-61
2024/03/01 11:01:46;;;;;;;35.05;21.70;;;;;;;-144.57;100.00;62443.72;4993728;28;20061;-61
2024/03/01 11:04:40;;;;;;;42.45;22.20;;;;;;;-144.57;100.00;62443.72;5011200;28;20129;-62